createdAt,value
2023-02-28T00:00:12.901Z,-0.40
2023-02-28T00:02:40.004Z,-0.41
2023-02-28T00:05:07.147Z,-0.40
2023-02-28T00:07:33.918Z,-0.49
2023-02-28T00:10:00.931Z,-0.46
2023-02-28T00:12:27.360Z,-0.50
2023-02-28T00:14:53.837Z,-0.50
2023-02-28T00:17:21.971Z,-0.53
2023-02-28T00:19:51.845Z,-0.58
2023-02-28T00:22:19.563Z,-0.59
2023-02-28T00:24:46.435Z,-0.66
2023-02-28T00:27:12.977Z,-0.73
2023-02-28T00:29:39.433Z,-0.80
2023-02-28T00:32:05.997Z,-0.80
2023-02-28T00:34:33.523Z,-0.81
2023-02-28T00:36:59.891Z,-0.86
2023-02-28T00:39:26.268Z,-0.88
2023-02-28T00:41:52.626Z,-0.93
2023-02-28T00:44:19.011Z,-0.97
2023-02-28T00:46:45.356Z,-1.01
2023-02-28T00:49:11.716Z,-1.02
2023-02-28T00:51:38.096Z,-1.02
2023-02-28T00:54:04.677Z,-1.05
2023-02-28T00:56:31.046Z,-1.08
2023-02-28T00:58:57.598Z,-1.11
2023-02-28T01:01:23.991Z,-1.12
2023-02-28T01:03:50.540Z,-1.16
2023-02-28T01:06:16.950Z,-1.16
2023-02-28T01:08:43.497Z,-1.14
2023-02-28T01:11:11.193Z,-1.13
2023-02-28T01:13:37.656Z,-1.09
2023-02-28T01:16:04.543Z,-1.11
2023-02-28T01:18:31.582Z,-1.12
2023-02-28T01:20:57.953Z,-1.12
2023-02-28T01:23:24.549Z,-1.10
2023-02-28T01:25:52.026Z,-1.11
2023-02-28T01:28:18.361Z,-1.09
2023-02-28T01:30:49.093Z,-1.11
2023-02-28T01:33:15.461Z,-1.15
2023-02-28T01:35:42.646Z,-1.18
2023-02-28T01:38:21.207Z,-1.19
2023-02-28T01:40:48.944Z,-1.23
2023-02-28T01:43:44.611Z,-1.18
2023-02-28T01:46:11.507Z,-1.13
2023-02-28T01:48:42.823Z,-1.15
2023-02-28T01:51:12.044Z,-1.19
2023-02-28T01:53:43.514Z,-1.20
2023-02-28T01:56:09.973Z,-1.25
2023-02-28T01:58:36.328Z,-1.29
2023-02-28T02:01:03.934Z,-1.29
2023-02-28T02:03:30.371Z,-1.33
2023-02-28T02:05:56.771Z,-1.35
2023-02-28T02:08:27.717Z,-1.36
2023-02-28T02:11:00.631Z,-1.36
2023-02-28T02:13:59.475Z,-1.37
2023-02-28T02:16:52.117Z,-1.42
2023-02-28T02:19:46.231Z,-1.47
2023-02-28T02:22:27.667Z,-1.53
2023-02-28T02:25:13.178Z,-1.54
2023-02-28T02:27:58.527Z,-1.55
2023-02-28T02:30:24.851Z,-1.52
2023-02-28T02:33:10.188Z,-1.52
2023-02-28T02:35:50.995Z,-1.53
2023-02-28T02:38:38.064Z,-1.50
2023-02-28T02:41:16.784Z,-1.45
2023-02-28T02:43:46.910Z,-1.37
2023-02-28T02:46:16.366Z,-1.31
2023-02-28T02:48:42.994Z,-1.41
2023-02-28T02:51:13.411Z,-1.35
2023-02-28T02:53:50.430Z,-1.28
2023-02-28T02:56:21.224Z,-1.23
2023-02-28T02:58:48.177Z,-1.12
2023-02-28T03:01:28.671Z,-1.07
2023-02-28T03:03:59.704Z,-0.99
2023-02-28T03:06:26.472Z,-0.94
2023-02-28T03:08:52.844Z,-0.93
2023-02-28T03:11:21.420Z,-0.94
2023-02-28T03:14:10.808Z,-0.94
2023-02-28T03:16:48.272Z,-0.97
2023-02-28T03:19:52.462Z,-0.99
2023-02-28T03:22:29.092Z,-1.01
2023-02-28T03:25:02.771Z,-0.99
2023-02-28T03:27:34.206Z,-1.00
2023-02-28T03:30:25.104Z,-1.02
2023-02-28T03:33:06.457Z,-1.03
2023-02-28T03:35:45.880Z,-1.02
2023-02-28T03:38:30.643Z,-1.02
2023-02-28T03:41:07.914Z,-0.98
2023-02-28T03:43:36.320Z,-0.99
2023-02-28T03:46:04.177Z,-1.01
2023-02-28T03:48:58.604Z,-1.01
2023-02-28T03:51:25.452Z,-1.05
2023-02-28T03:53:54.043Z,-1.01
2023-02-28T03:56:41.814Z,-1.05
2023-02-28T03:59:27.641Z,-1.07
2023-02-28T04:01:54.062Z,-1.06
2023-02-28T04:04:20.427Z,-1.04
2023-02-28T04:06:46.889Z,-1.02
2023-02-28T04:09:14.605Z,-1.02
2023-02-28T04:11:45.024Z,-1.04
2023-02-28T04:14:11.827Z,-1.04
2023-02-28T04:16:40.196Z,-1.03
2023-02-28T04:19:07.384Z,-1.00
2023-02-28T04:21:44.052Z,-0.96
2023-02-28T04:24:15.121Z,-0.95
2023-02-28T04:26:50.061Z,-0.98
2023-02-28T04:29:24.519Z,-1.03
2023-02-28T04:31:51.350Z,-1.06
2023-02-28T04:34:19.871Z,-1.06
2023-02-28T04:36:46.916Z,-1.14
2023-02-28T04:39:13.517Z,-1.17
2023-02-28T04:41:39.920Z,-1.17
2023-02-28T04:44:06.329Z,-1.17
2023-02-28T04:46:32.752Z,-1.14
2023-02-28T04:48:59.957Z,-1.19
2023-02-28T04:51:26.340Z,-1.20
2023-02-28T04:53:53.069Z,-1.31
2023-02-28T04:56:19.643Z,-1.32
2023-02-28T04:58:46.267Z,-1.29
2023-02-28T05:01:39.023Z,-1.33
2023-02-28T05:04:05.668Z,-1.34
2023-02-28T05:06:33.249Z,-1.37
2023-02-28T05:08:59.886Z,-1.39
2023-02-28T05:11:36.314Z,-1.44
2023-02-28T05:14:08.160Z,-1.47
2023-02-28T05:16:34.541Z,-1.49
2023-02-28T05:19:00.914Z,-1.52
2023-02-28T05:21:32.770Z,-1.52
2023-02-28T05:24:00.747Z,-1.51
2023-02-28T05:26:27.482Z,-1.51
2023-02-28T05:28:54.129Z,-1.52
2023-02-28T05:31:20.628Z,-1.53
2023-02-28T05:33:47.150Z,-1.55
2023-02-28T05:36:13.781Z,-1.58
2023-02-28T05:38:40.296Z,-1.60
2023-02-28T05:41:10.265Z,-1.62
2023-02-28T05:43:38.018Z,-1.64
2023-02-28T05:46:06.568Z,-1.59
2023-02-28T05:48:34.138Z,-1.61
2023-02-28T05:51:00.898Z,-1.66
2023-02-28T05:53:27.410Z,-1.73
2023-02-28T05:55:53.996Z,-1.74
2023-02-28T05:58:20.436Z,-1.77
2023-02-28T06:00:46.804Z,-1.77
2023-02-28T06:03:13.143Z,-1.78
2023-02-28T06:05:39.549Z,-1.83
2023-02-28T06:08:07.937Z,-1.84
2023-02-28T06:10:35.467Z,-1.83
2023-02-28T06:13:03.441Z,-1.86
2023-02-28T06:15:29.963Z,-1.90
2023-02-28T06:17:59.476Z,-1.90
2023-02-28T06:20:30.157Z,-1.92
2023-02-28T06:22:59.523Z,-1.96
2023-02-28T06:25:27.329Z,-1.99
2023-02-28T06:27:54.237Z,-2.04
2023-02-28T06:30:24.730Z,-2.06
2023-02-28T06:32:51.064Z,-2.08
2023-02-28T06:35:17.711Z,-2.10
2023-02-28T06:37:44.884Z,-2.10
2023-02-28T06:40:11.807Z,-2.11
2023-02-28T06:42:38.182Z,-2.08
2023-02-28T06:45:09.937Z,-2.06
2023-02-28T06:47:37.493Z,-2.07
2023-02-28T06:50:04.304Z,-2.04
2023-02-28T06:52:30.705Z,-2.01
2023-02-28T06:55:01.072Z,-2.02
2023-02-28T06:57:32.154Z,-1.98
2023-02-28T07:00:02.005Z,-1.95
2023-02-28T07:02:28.518Z,-1.92
2023-02-28T07:04:55.203Z,-1.89
2023-02-28T07:07:21.836Z,-1.87
2023-02-28T07:09:48.200Z,-1.85
2023-02-28T07:12:14.604Z,-1.80
2023-02-28T07:14:40.951Z,-1.76
2023-02-28T07:17:12.862Z,-1.72
2023-02-28T07:19:40.073Z,-1.69
2023-02-28T07:22:06.997Z,-1.62
2023-02-28T07:24:33.408Z,-1.61
2023-02-28T07:27:00.332Z,-1.57
2023-02-28T07:29:26.845Z,-1.50
2023-02-28T07:31:54.101Z,-1.47
2023-02-28T07:34:21.577Z,-1.42
2023-02-28T07:36:47.994Z,-1.36
2023-02-28T07:39:14.356Z,-1.31
2023-02-28T07:41:44.620Z,-1.25
2023-02-28T07:44:11.704Z,-1.18
2023-02-28T07:46:38.354Z,-1.13
2023-02-28T07:49:05.216Z,-1.10
2023-02-28T07:51:31.893Z,-1.07
2023-02-28T07:53:58.459Z,-0.99
2023-02-28T07:56:24.937Z,-0.87
2023-02-28T07:58:51.280Z,-0.75
2023-02-28T08:01:18.273Z,-0.71
2023-02-28T08:03:44.869Z,-0.67
2023-02-28T08:06:17.296Z,-0.60
2023-02-28T08:08:43.624Z,-0.55
2023-02-28T08:11:10.143Z,-0.46
2023-02-28T08:13:36.588Z,-0.35
2023-02-28T08:16:03.098Z,-0.27
2023-02-28T08:18:29.732Z,-0.22
2023-02-28T08:20:56.300Z,-0.18
2023-02-28T08:23:22.656Z,-0.17
2023-02-28T08:25:58.089Z,-0.16
2023-02-28T08:28:26.998Z,-0.06
2023-02-28T08:30:53.544Z,0.00
2023-02-28T08:33:20.166Z,0.04
2023-02-28T08:35:46.546Z,-0.01
2023-02-28T08:38:12.927Z,0.08
2023-02-28T08:40:39.549Z,0.10
2023-02-28T08:43:05.895Z,0.17
2023-02-28T08:45:32.314Z,0.23
2023-02-28T08:47:58.752Z,0.33
2023-02-28T08:50:25.211Z,0.45
2023-02-28T08:52:51.627Z,0.55
2023-02-28T08:55:18.212Z,0.68
2023-02-28T08:57:44.596Z,0.78
2023-02-28T09:00:14.421Z,0.89
2023-02-28T09:02:41.661Z,0.98
2023-02-28T09:05:08.965Z,1.07
2023-02-28T09:07:35.357Z,1.11
2023-02-28T09:10:01.949Z,1.22
2023-02-28T09:12:28.891Z,1.32
2023-02-28T09:14:55.251Z,1.39
2023-02-28T09:17:21.681Z,1.49
2023-02-28T09:19:51.069Z,1.58
2023-02-28T09:22:17.551Z,1.67
2023-02-28T09:24:45.507Z,1.78
2023-02-28T09:27:12.044Z,1.91
2023-02-28T09:29:38.382Z,2.00
2023-02-28T09:32:06.657Z,2.14
2023-02-28T09:34:33.267Z,2.19
2023-02-28T09:36:59.796Z,2.18
2023-02-28T09:39:27.726Z,2.31
2023-02-28T09:41:55.241Z,2.27
2023-02-28T09:44:25.151Z,2.39
2023-02-28T09:46:55.421Z,2.46
2023-02-28T09:49:24.782Z,2.50
2023-02-28T09:51:59.722Z,2.51
2023-02-28T09:54:29.052Z,2.64
2023-02-28T09:57:05.995Z,2.64
2023-02-28T09:59:54.388Z,2.81
2023-02-28T10:02:48.303Z,2.88
2023-02-28T10:05:19.800Z,2.86
2023-02-28T10:07:49.279Z,3.04
2023-02-28T10:10:25.171Z,3.14
2023-02-28T10:12:53.800Z,3.15
2023-02-28T10:15:20.144Z,3.24
2023-02-28T10:17:55.208Z,3.28
2023-02-28T10:20:32.368Z,3.34
2023-02-28T10:23:22.607Z,3.38
2023-02-28T10:26:01.258Z,3.42
2023-02-28T10:28:28.019Z,3.45
2023-02-28T10:30:54.600Z,3.62
2023-02-28T10:33:23.995Z,3.70
2023-02-28T10:35:50.805Z,3.68
2023-02-28T10:38:26.721Z,3.73
2023-02-28T10:40:53.108Z,3.89
2023-02-28T10:43:20.838Z,4.07
2023-02-28T10:46:00.683Z,4.12
2023-02-28T10:48:30.660Z,4.20
2023-02-28T10:50:58.790Z,4.31
2023-02-28T10:53:28.222Z,4.50
2023-02-28T10:56:04.804Z,4.60
2023-02-28T10:58:32.861Z,4.68
2023-02-28T11:00:59.904Z,4.90
2023-02-28T11:03:36.105Z,5.07
2023-02-28T11:06:22.322Z,5.18
2023-02-28T11:09:04.881Z,5.28
2023-02-28T11:11:32.717Z,5.46
2023-02-28T11:14:05.024Z,5.70
2023-02-28T11:16:35.964Z,5.71
2023-02-28T11:19:02.418Z,5.77
2023-02-28T11:21:30.139Z,6.05
2023-02-28T11:24:05.393Z,6.11
2023-02-28T11:26:45.511Z,5.83
2023-02-28T11:29:17.290Z,6.03
2023-02-28T11:31:43.846Z,6.37
2023-02-28T11:34:24.364Z,6.00
2023-02-28T11:36:50.710Z,5.70
2023-02-28T11:39:17.107Z,5.45
2023-02-28T11:42:11.603Z,5.58
2023-02-28T11:44:59.225Z,5.02
2023-02-28T11:47:39.080Z,4.89
2023-02-28T11:50:41.175Z,5.27
2023-02-28T11:53:46.074Z,5.56
2023-02-28T11:56:30.996Z,5.35
2023-02-28T11:59:19.223Z,4.84
2023-02-28T12:01:54.904Z,4.97
2023-02-28T12:04:43.774Z,5.02
2023-02-28T12:07:26.782Z,5.12
2023-02-28T12:10:03.107Z,5.49
2023-02-28T12:13:08.113Z,5.67
2023-02-28T12:15:55.703Z,6.01
2023-02-28T12:18:31.003Z,5.86
2023-02-28T12:21:16.459Z,6.02
2023-02-28T12:24:00.506Z,6.46
2023-02-28T12:26:47.871Z,6.81
2023-02-28T12:29:27.052Z,6.75
2023-02-28T12:32:14.809Z,6.94
2023-02-28T12:34:46.631Z,6.28
2023-02-28T12:37:39.567Z,6.16
2023-02-28T12:40:08.647Z,6.77
2023-02-28T12:42:39.592Z,6.96
2023-02-28T12:45:13.480Z,6.60
2023-02-28T12:47:39.871Z,6.45
2023-02-28T12:50:08.776Z,6.89
2023-02-28T12:52:54.220Z,6.98
2023-02-28T12:55:39.122Z,7.00
2023-02-28T12:58:11.508Z,6.48
2023-02-28T13:00:39.277Z,6.68
2023-02-28T13:03:34.262Z,6.59
2023-02-28T13:06:00.625Z,7.19
2023-02-28T13:08:39.009Z,7.10
2023-02-28T13:11:13.103Z,6.89
2023-02-28T13:13:46.226Z,7.35
2023-02-28T13:16:12.616Z,7.33
2023-02-28T13:18:46.470Z,6.41
2023-02-28T13:21:28.213Z,6.38
2023-02-28T13:24:00.852Z,6.58
2023-02-28T13:26:36.692Z,6.64
2023-02-28T13:29:23.872Z,6.49
2023-02-28T13:32:20.106Z,6.55
2023-02-28T13:34:52.626Z,6.73
2023-02-28T13:37:19.015Z,6.79
2023-02-28T13:39:52.550Z,6.74
2023-02-28T13:42:31.180Z,6.92
2023-02-28T13:45:07.190Z,7.13
2023-02-28T13:47:39.867Z,7.09
2023-02-28T13:50:21.406Z,7.32
2023-02-28T13:53:23.493Z,6.91
2023-02-28T13:56:11.394Z,6.65
2023-02-28T13:58:53.114Z,6.85
2023-02-28T14:01:48.503Z,7.02
2023-02-28T14:04:27.528Z,7.13
2023-02-28T14:06:54.973Z,6.71
2023-02-28T14:09:30.354Z,6.93
2023-02-28T14:11:56.984Z,6.97
2023-02-28T14:14:35.566Z,6.92
2023-02-28T14:17:10.532Z,6.48
2023-02-28T14:19:37.950Z,6.60
2023-02-28T14:22:13.331Z,6.58
2023-02-28T14:24:42.722Z,6.45
2023-02-28T14:27:18.482Z,6.43
2023-02-28T14:29:47.902Z,6.35
2023-02-28T14:32:34.098Z,6.70
2023-02-28T14:35:17.907Z,6.88
2023-02-28T14:37:44.297Z,6.90
2023-02-28T14:40:16.832Z,6.91
2023-02-28T14:42:48.151Z,6.88
2023-02-28T14:45:19.654Z,6.90
2023-02-28T14:47:46.048Z,6.88
2023-02-28T14:50:20.502Z,6.89
2023-02-28T14:52:46.871Z,6.85
2023-02-28T14:55:16.412Z,6.82
2023-02-28T14:57:51.452Z,6.85
2023-02-28T15:00:27.895Z,6.60
2023-02-28T15:02:55.014Z,6.35
2023-02-28T15:05:25.895Z,6.55
2023-02-28T15:08:04.363Z,6.57
2023-02-28T15:10:31.569Z,6.32
2023-02-28T15:13:12.327Z,6.24
2023-02-28T15:16:02.774Z,5.95
2023-02-28T15:18:33.270Z,6.00
2023-02-28T15:21:01.688Z,5.90
2023-02-28T15:23:28.050Z,5.82
2023-02-28T15:25:54.453Z,5.88
2023-02-28T15:28:21.626Z,5.86
2023-02-28T15:30:59.713Z,5.95
2023-02-28T15:33:30.701Z,5.82
2023-02-28T15:36:08.282Z,5.78
2023-02-28T15:38:35.993Z,5.94
2023-02-28T15:41:02.473Z,6.10
2023-02-28T15:43:33.109Z,5.90
2023-02-28T15:46:19.740Z,5.74
2023-02-28T15:48:54.107Z,5.71
2023-02-28T15:51:30.090Z,5.81
2023-02-28T15:54:06.645Z,5.73
2023-02-28T15:56:37.465Z,5.41
2023-02-28T15:59:05.783Z,5.44
2023-02-28T16:01:36.470Z,5.36
2023-02-28T16:04:15.367Z,5.29
2023-02-28T16:06:45.804Z,5.29
2023-02-28T16:09:16.471Z,5.35
2023-02-28T16:11:50.312Z,5.36
2023-02-28T16:14:21.308Z,5.24
2023-02-28T16:16:49.530Z,5.17
2023-02-28T16:19:16.218Z,4.98
2023-02-28T16:21:42.606Z,4.94
2023-02-28T16:24:09.027Z,4.86
2023-02-28T16:26:35.436Z,4.85
2023-02-28T16:29:02.353Z,4.77
2023-02-28T16:31:29.236Z,4.66
2023-02-28T16:33:57.979Z,4.57
2023-02-28T16:36:28.529Z,4.49
2023-02-28T16:38:55.576Z,4.38
2023-02-28T16:41:23.364Z,4.31
2023-02-28T16:43:51.135Z,4.30
2023-02-28T16:46:17.892Z,4.24
2023-02-28T16:48:45.778Z,4.14
2023-02-28T16:51:13.493Z,4.01
2023-02-28T16:53:39.948Z,3.92
2023-02-28T16:56:08.008Z,3.86
2023-02-28T16:58:36.517Z,3.71
2023-02-28T17:01:03.956Z,3.62
2023-02-28T17:03:33.681Z,3.55
2023-02-28T17:06:00.473Z,3.47
2023-02-28T17:08:27.587Z,3.39
2023-02-28T17:10:54.196Z,3.32
2023-02-28T17:13:20.562Z,3.28
2023-02-28T17:15:47.480Z,3.17
2023-02-28T17:18:19.782Z,3.01
2023-02-28T17:20:46.720Z,2.89
2023-02-28T17:23:13.090Z,2.87
2023-02-28T17:25:39.465Z,2.75
2023-02-28T17:28:06.132Z,2.65
2023-02-28T17:30:34.087Z,2.57
2023-02-28T17:33:00.693Z,2.50
2023-02-28T17:35:27.741Z,2.44
2023-02-28T17:37:54.190Z,2.38
2023-02-28T17:40:22.458Z,2.30
2023-02-28T17:42:48.823Z,2.21
2023-02-28T17:45:15.591Z,2.09
2023-02-28T17:47:43.083Z,1.98
2023-02-28T17:50:17.603Z,1.88
2023-02-28T17:52:44.069Z,1.80
2023-02-28T17:55:11.181Z,1.80
2023-02-28T17:57:37.529Z,1.84
2023-02-28T18:00:07.534Z,1.86
2023-02-28T18:02:34.239Z,1.85
2023-02-28T18:05:00.714Z,1.86
2023-02-28T18:07:27.114Z,1.81
2023-02-28T18:09:53.552Z,1.78
2023-02-28T18:12:20.094Z,1.72
2023-02-28T18:14:48.520Z,1.69
2023-02-28T18:17:14.960Z,1.65
2023-02-28T18:19:41.825Z,1.64
2023-02-28T18:22:08.670Z,1.56
2023-02-28T18:24:35.540Z,1.45
2023-02-28T18:27:02.139Z,1.37
2023-02-28T18:29:28.516Z,1.24
2023-02-28T18:31:55.887Z,1.12
2023-02-28T18:34:23.077Z,1.07
2023-02-28T18:36:50.837Z,1.03
2023-02-28T18:39:17.635Z,0.95
2023-02-28T18:41:43.998Z,0.87
2023-02-28T18:44:19.096Z,0.77
2023-02-28T18:46:46.240Z,0.69
2023-02-28T18:49:12.736Z,0.62
2023-02-28T18:51:39.158Z,0.55
2023-02-28T18:54:05.576Z,0.56
2023-02-28T18:56:32.121Z,0.54
2023-02-28T18:58:58.710Z,0.51
2023-02-28T19:01:32.134Z,0.46
2023-02-28T19:04:00.711Z,0.43
2023-02-28T19:06:28.185Z,0.37
2023-02-28T19:08:58.757Z,0.33
2023-02-28T19:11:25.284Z,0.28
2023-02-28T19:13:51.738Z,0.24
2023-02-28T19:16:19.542Z,0.23
2023-02-28T19:18:46.010Z,0.22
2023-02-28T19:21:13.669Z,0.22
2023-02-28T19:23:40.660Z,0.18
2023-02-28T19:26:08.082Z,0.16
2023-02-28T19:28:34.591Z,0.12
2023-02-28T19:31:01.148Z,0.10
2023-02-28T19:33:27.499Z,0.09
2023-02-28T19:35:55.215Z,0.09
2023-02-28T19:38:21.665Z,0.07
2023-02-28T19:40:48.068Z,0.04
2023-02-28T19:43:14.425Z,0.00
2023-02-28T19:45:40.837Z,-0.03
2023-02-28T19:48:09.751Z,-0.06
2023-02-28T19:50:37.525Z,-0.12
2023-02-28T19:53:04.236Z,-0.12
2023-02-28T19:55:30.646Z,-0.15
2023-02-28T19:57:56.975Z,-0.16
2023-02-28T20:00:23.486Z,-0.17
2023-02-28T20:02:49.837Z,-0.17
2023-02-28T20:05:16.222Z,-0.20
2023-02-28T20:07:42.588Z,-0.24
2023-02-28T20:10:09.812Z,-0.31
2023-02-28T20:12:36.267Z,-0.37
2023-02-28T20:15:02.753Z,-0.38
2023-02-28T20:17:30.295Z,-0.39
2023-02-28T20:19:56.744Z,-0.40
2023-02-28T20:22:23.148Z,-0.40
2023-02-28T20:24:49.619Z,-0.43
2023-02-28T20:27:16.048Z,-0.49
2023-02-28T20:29:42.468Z,-0.54
2023-02-28T20:32:08.940Z,-0.56
2023-02-28T20:34:35.486Z,-0.56
2023-02-28T20:37:01.932Z,-0.61
2023-02-28T20:39:28.319Z,-0.65
2023-02-28T20:41:54.700Z,-0.61
2023-02-28T20:44:21.119Z,-0.65
2023-02-28T20:46:47.580Z,-0.64
2023-02-28T20:49:15.078Z,-0.70
2023-02-28T20:51:42.249Z,-0.75
2023-02-28T20:54:08.895Z,-0.75
2023-02-28T20:56:35.359Z,-0.71
2023-02-28T20:59:01.728Z,-0.73
2023-02-28T21:01:28.482Z,-0.78
2023-02-28T21:03:56.146Z,-0.79
2023-02-28T21:06:28.350Z,-0.81
2023-02-28T21:08:55.077Z,-0.85
2023-02-28T21:11:24.455Z,-0.88
2023-02-28T21:13:54.349Z,-0.87
2023-02-28T21:16:24.395Z,-0.91
2023-02-28T21:18:52.726Z,-0.93
2023-02-28T21:21:20.724Z,-0.98
2023-02-28T21:23:47.288Z,-0.96
2023-02-28T21:26:18.696Z,-0.99
2023-02-28T21:28:58.600Z,-1.04
2023-02-28T21:31:26.077Z,-1.03
2023-02-28T21:33:54.023Z,-1.07
2023-02-28T21:36:22.138Z,-1.10
2023-02-28T21:38:51.156Z,-1.15
2023-02-28T21:41:19.208Z,-1.19
2023-02-28T21:43:45.867Z,-1.21
2023-02-28T21:46:19.737Z,-1.20
2023-02-28T21:48:48.843Z,-1.22
2023-02-28T21:51:22.480Z,-1.25
2023-02-28T21:53:49.006Z,-1.26
2023-02-28T21:56:20.796Z,-1.28
2023-02-28T21:58:47.349Z,-1.31
2023-02-28T22:01:15.733Z,-1.35
2023-02-28T22:03:42.482Z,-1.39
2023-02-28T22:06:22.167Z,-1.40
2023-02-28T22:08:50.584Z,-1.40
2023-02-28T22:11:17.554Z,-1.45
2023-02-28T22:13:43.889Z,-1.49
2023-02-28T22:16:12.751Z,-1.49
2023-02-28T22:18:39.642Z,-1.52
2023-02-28T22:21:06.486Z,-1.54
2023-02-28T22:23:32.932Z,-1.58
2023-02-28T22:26:07.126Z,-1.61
2023-02-28T22:28:33.684Z,-1.63
2023-02-28T22:31:00.355Z,-1.68
2023-02-28T22:33:27.133Z,-1.68
2023-02-28T22:35:53.810Z,-1.70
2023-02-28T22:38:20.261Z,-1.73
2023-02-28T22:40:46.617Z,-1.79
2023-02-28T22:43:13.148Z,-1.82
2023-02-28T22:45:39.934Z,-1.81
2023-02-28T22:48:07.567Z,-1.87
2023-02-28T22:50:34.095Z,-1.89
2023-02-28T22:53:00.758Z,-1.88
2023-02-28T22:55:27.241Z,-1.92
2023-02-28T22:57:53.681Z,-1.92
2023-02-28T23:00:20.335Z,-1.92
2023-02-28T23:02:47.229Z,-1.99
2023-02-28T23:05:14.151Z,-2.02
2023-02-28T23:07:40.842Z,-2.03
2023-02-28T23:10:12.219Z,-2.00
2023-02-28T23:12:50.007Z,-2.01
2023-02-28T23:15:18.184Z,-2.09
2023-02-28T23:17:45.128Z,-2.08
2023-02-28T23:20:16.307Z,-2.10
2023-02-28T23:22:46.484Z,-2.10
2023-02-28T23:25:13.944Z,-2.14
2023-02-28T23:27:40.552Z,-2.18
2023-02-28T23:30:07.819Z,-2.20
2023-02-28T23:32:34.293Z,-2.21
2023-02-28T23:35:00.856Z,-2.23
2023-02-28T23:37:27.193Z,-2.24
2023-02-28T23:39:53.666Z,-2.23
2023-02-28T23:42:20.395Z,-2.24
2023-02-28T23:44:46.784Z,-2.26
2023-02-28T23:47:14.076Z,-2.30
2023-02-28T23:49:40.484Z,-2.35
2023-02-28T23:52:06.912Z,-2.37
2023-02-28T23:54:33.258Z,-2.40
2023-02-28T23:56:59.635Z,-2.45
2023-02-28T23:59:26.017Z,-2.49
